Annandale, New York
Current Conditions -  °F | °C
As of 4:36 AM on Monday 24 Nov 2014 (Local Time) from KPOU Reporting Station
Moderate Rain Moderate Rain  
Wind Chill: 57°   Ceiling: 4200
Heat Index: 57°   Visibility: 4mi
Dew Point: 54°   Wind: 8mph
Humidity: 89%   Direction: 120°ESE
Pressure: 29.72"   Gusts: 18mph
Location:  42.0124°N, 73.8998°W
Report Text: KPOU 240936Z AUTO 12007G16KT 4SM RA BR FEW011 BKN042 OVC050 14/12 A2972 RMK AO2 PRESFR P0009 T01390122 TSNO
Loading
Personal Weather Stations






























Interactive Weather Map New forecast layout! Learn more

10-Day Weather Forecast

Advertisements
Track Severe Weather on mobile